sensor_id;sensor_type;location;lat;lon;timestamp;P1;durP1;ratioP1;P2;durP2;ratioP2
1336;SDS011;662;48.814;9.318;2023-05-07T00:01:48;6.07;;;5.53;;
1336;SDS011;662;48.814;9.318;2023-05-07T00:04:14;4.30;;;4.00;;
1336;SDS011;662;48.814;9.318;2023-05-07T00:06:39;5.47;;;4.70;;
1336;SDS011;662;48.814;9.318;2023-05-07T00:09:06;4.53;;;3.97;;
1336;SDS011;662;48.814;9.318;2023-05-07T00:11:32;4.50;;;4.20;;
1336;SDS011;662;48.814;9.318;2023-05-07T00:13:58;4.97;;;3.80;;
1336;SDS011;662;48.814;9.318;2023-05-07T00:16:24;6.50;;;4.27;;
1336;SDS011;662;48.814;9.318;2023-05-07T00:18:49;4.80;;;4.40;;
1336;SDS011;662;48.814;9.318;2023-05-07T00:21:15;5.27;;;4.20;;
1336;SDS011;662;48.814;9.318;2023-05-07T00:23:41;4.60;;;4.03;;
1336;SDS011;662;48.814;9.318;2023-05-07T00:26:06;4.63;;;4.30;;
1336;SDS011;662;48.814;9.318;2023-05-07T00:28:32;5.53;;;4.50;;
1336;SDS011;662;48.814;9.318;2023-05-07T00:30:58;5.67;;;5.17;;
1336;SDS011;662;48.814;9.318;2023-05-07T00:33:23;7.20;;;5.13;;
1336;SDS011;662;48.814;9.318;2023-05-07T00:35:51;5.80;;;5.20;;
1336;SDS011;662;48.814;9.318;2023-05-07T00:38:19;5.40;;;4.90;;
1336;SDS011;662;48.814;9.318;2023-05-07T00:40:44;7.83;;;4.87;;
1336;SDS011;662;48.814;9.318;2023-05-07T00:43:10;8.00;;;5.43;;
1336;SDS011;662;48.814;9.318;2023-05-07T00:45:37;6.00;;;5.10;;
1336;SDS011;662;48.814;9.318;2023-05-07T00:48:03;5.80;;;5.17;;
1336;SDS011;662;48.814;9.318;2023-05-07T00:50:30;6.50;;;5.10;;
1336;SDS011;662;48.814;9.318;2023-05-07T00:52:57;5.83;;;5.10;;
1336;SDS011;662;48.814;9.318;2023-05-07T00:55:23;5.80;;;4.43;;
1336;SDS011;662;48.814;9.318;2023-05-07T00:57:49;5.17;;;4.73;;
1336;SDS011;662;48.814;9.318;2023-05-07T01:00:16;5.33;;;4.83;;
1336;SDS011;662;48.814;9.318;2023-05-07T01:02:43;5.73;;;5.00;;
1336;SDS011;662;48.814;9.318;2023-05-07T01:05:10;6.50;;;4.97;;
1336;SDS011;662;48.814;9.318;2023-05-07T01:07:38;5.23;;;4.60;;
1336;SDS011;662;48.814;9.318;2023-05-07T01:10:05;6.93;;;4.70;;
1336;SDS011;662;48.814;9.318;2023-05-07T01:12:32;5.03;;;4.50;;
1336;SDS011;662;48.814;9.318;2023-05-07T01:15:00;6.53;;;4.33;;
1336;SDS011;662;48.814;9.318;2023-05-07T01:17:26;4.73;;;4.23;;
1336;SDS011;662;48.814;9.318;2023-05-07T01:19:52;4.73;;;4.30;;
1336;SDS011;662;48.814;9.318;2023-05-07T01:22:33;4.37;;;3.97;;
1336;SDS011;662;48.814;9.318;2023-05-07T01:25:01;4.77;;;3.53;;
1336;SDS011;662;48.814;9.318;2023-05-07T01:27:28;4.73;;;4.33;;
1336;SDS011;662;48.814;9.318;2023-05-07T01:29:53;4.20;;;3.80;;
1336;SDS011;662;48.814;9.318;2023-05-07T01:32:23;4.60;;;4.20;;
1336;SDS011;662;48.814;9.318;2023-05-07T01:34:57;4.60;;;4.20;;
1336;SDS011;662;48.814;9.318;2023-05-07T01:37:25;4.23;;;3.93;;
1336;SDS011;662;48.814;9.318;2023-05-07T01:39:51;8.00;;;4.60;;
1336;SDS011;662;48.814;9.318;2023-05-07T01:42:17;5.17;;;4.13;;
1336;SDS011;662;48.814;9.318;2023-05-07T01:44:43;5.27;;;4.67;;
1336;SDS011;662;48.814;9.318;2023-05-07T01:47:09;4.87;;;4.37;;
1336;SDS011;662;48.814;9.318;2023-05-07T01:49:35;6.00;;;5.60;;
1336;SDS011;662;48.814;9.318;2023-05-07T01:52:01;5.47;;;5.07;;
1336;SDS011;662;48.814;9.318;2023-05-07T01:54:27;6.50;;;5.90;;
1336;SDS011;662;48.814;9.318;2023-05-07T01:56:54;7.63;;;7.10;;
1336;SDS011;662;48.814;9.318;2023-05-07T01:59:21;7.73;;;7.00;;
1336;SDS011;662;48.814;9.318;2023-05-07T02:01:46;4.93;;;4.50;;
1336;SDS011;662;48.814;9.318;2023-05-07T02:04:12;5.73;;;5.17;;
1336;SDS011;662;48.814;9.318;2023-05-07T02:06:38;4.40;;;4.00;;
1336;SDS011;662;48.814;9.318;2023-05-07T02:09:04;5.90;;;3.93;;
1336;SDS011;662;48.814;9.318;2023-05-07T02:11:30;4.40;;;4.00;;
1336;SDS011;662;48.814;9.318;2023-05-07T02:13:55;3.70;;;3.40;;
1336;SDS011;662;48.814;9.318;2023-05-07T02:16:21;4.70;;;3.40;;
1336;SDS011;662;48.814;9.318;2023-05-07T02:18:48;4.57;;;4.13;;
1336;SDS011;662;48.814;9.318;2023-05-07T02:21:13;5.10;;;4.17;;
1336;SDS011;662;48.814;9.318;2023-05-07T02:23:39;4.73;;;3.70;;
1336;SDS011;662;48.814;9.318;2023-05-07T02:26:05;4.33;;;3.93;;
1336;SDS011;662;48.814;9.318;2023-05-07T02:28:31;3.63;;;3.33;;
1336;SDS011;662;48.814;9.318;2023-05-07T02:30:56;4.67;;;3.37;;
1336;SDS011;662;48.814;9.318;2023-05-07T02:33:23;3.90;;;3.60;;
1336;SDS011;662;48.814;9.318;2023-05-07T02:35:49;4.07;;;3.67;;
1336;SDS011;662;48.814;9.318;2023-05-07T02:38:17;3.73;;;3.27;;
1336;SDS011;662;48.814;9.318;2023-05-07T02:40:42;6.10;;;3.47;;
1336;SDS011;662;48.814;9.318;2023-05-07T02:43:08;4.67;;;4.27;;
1336;SDS011;662;48.814;9.318;2023-05-07T02:45:34;5.97;;;3.70;;
1336;SDS011;662;48.814;9.318;2023-05-07T02:48:01;3.70;;;3.37;;
1336;SDS011;662;48.814;9.318;2023-05-07T02:50:26;6.83;;;4.60;;
1336;SDS011;662;48.814;9.318;2023-05-07T02:52:52;4.90;;;3.73;;
1336;SDS011;662;48.814;9.318;2023-05-07T02:55:18;10.33;;;4.30;;
1336;SDS011;662;48.814;9.318;2023-05-07T02:57:43;4.07;;;3.77;;
1336;SDS011;662;48.814;9.318;2023-05-07T03:00:10;4.13;;;3.80;;
1336;SDS011;662;48.814;9.318;2023-05-07T03:02:40;4.73;;;4.00;;
1336;SDS011;662;48.814;9.318;2023-05-07T03:05:06;4.40;;;3.67;;
1336;SDS011;662;48.814;9.318;2023-05-07T03:07:32;4.20;;;3.60;;
1336;SDS011;662;48.814;9.318;2023-05-07T03:09:58;6.13;;;4.70;;
1336;SDS011;662;48.814;9.318;2023-05-07T03:12:23;4.50;;;4.00;;
1336;SDS011;662;48.814;9.318;2023-05-07T03:14:49;3.63;;;3.43;;
1336;SDS011;662;48.814;9.318;2023-05-07T03:17:15;5.13;;;4.00;;
1336;SDS011;662;48.814;9.318;2023-05-07T03:19:41;4.20;;;3.90;;
1336;SDS011;662;48.814;9.318;2023-05-07T03:22:06;4.17;;;3.87;;
1336;SDS011;662;48.814;9.318;2023-05-07T03:24:32;4.10;;;3.60;;
1336;SDS011;662;48.814;9.318;2023-05-07T03:26:58;4.73;;;4.23;;
1336;SDS011;662;48.814;9.318;2023-05-07T03:29:23;4.07;;;3.63;;
1336;SDS011;662;48.814;9.318;2023-05-07T03:31:49;5.30;;;3.97;;
1336;SDS011;662;48.814;9.318;2023-05-07T03:34:15;4.37;;;3.90;;
1336;SDS011;662;48.814;9.318;2023-05-07T03:36:42;4.40;;;4.00;;
1336;SDS011;662;48.814;9.318;2023-05-07T03:39:07;5.60;;;3.80;;
1336;SDS011;662;48.814;9.318;2023-05-07T03:41:33;3.80;;;3.50;;
1336;SDS011;662;48.814;9.318;2023-05-07T03:43:59;5.83;;;3.57;;
1336;SDS011;662;48.814;9.318;2023-05-07T03:46:24;4.43;;;3.93;;
1336;SDS011;662;48.814;9.318;2023-05-07T03:48:51;3.60;;;3.30;;
1336;SDS011;662;48.814;9.318;2023-05-07T03:51:17;3.97;;;3.67;;
1336;SDS011;662;48.814;9.318;2023-05-07T03:53:42;3.80;;;3.50;;
1336;SDS011;662;48.814;9.318;2023-05-07T03:56:08;7.40;;;3.60;;
1336;SDS011;662;48.814;9.318;2023-05-07T03:58:34;6.00;;;3.17;;
1336;SDS011;662;48.814;9.318;2023-05-07T04:01:00;4.20;;;3.40;;
1336;SDS011;662;48.814;9.318;2023-05-07T04:03:26;3.37;;;3.17;;
1336;SDS011;662;48.814;9.318;2023-05-07T04:05:51;3.50;;;3.20;;
1336;SDS011;662;48.814;9.318;2023-05-07T04:08:17;3.07;;;2.87;;
1336;SDS011;662;48.814;9.318;2023-05-07T04:10:42;3.60;;;3.30;;
1336;SDS011;662;48.814;9.318;2023-05-07T04:13:08;4.53;;;3.43;;
1336;SDS011;662;48.814;9.318;2023-05-07T04:15:35;4.57;;;4.07;;
1336;SDS011;662;48.814;9.318;2023-05-07T04:18:00;5.10;;;3.60;;
1336;SDS011;662;48.814;9.318;2023-05-07T04:20:26;3.83;;;3.43;;
1336;SDS011;662;48.814;9.318;2023-05-07T04:22:52;3.93;;;3.60;;
1336;SDS011;662;48.814;9.318;2023-05-07T04:25:18;3.90;;;3.60;;
1336;SDS011;662;48.814;9.318;2023-05-07T04:27:43;4.10;;;3.70;;
1336;SDS011;662;48.814;9.318;2023-05-07T04:30:09;4.30;;;3.50;;
1336;SDS011;662;48.814;9.318;2023-05-07T04:32:35;4.10;;;3.10;;
1336;SDS011;662;48.814;9.318;2023-05-07T04:35:02;4.10;;;3.47;;
1336;SDS011;662;48.814;9.318;2023-05-07T04:37:28;3.50;;;3.20;;
1336;SDS011;662;48.814;9.318;2023-05-07T04:39:54;4.50;;;3.53;;
1336;SDS011;662;48.814;9.318;2023-05-07T04:42:19;4.07;;;3.67;;
1336;SDS011;662;48.814;9.318;2023-05-07T04:44:45;4.17;;;3.30;;
1336;SDS011;662;48.814;9.318;2023-05-07T04:47:11;4.87;;;3.33;;
1336;SDS011;662;48.814;9.318;2023-05-07T04:49:37;4.00;;;3.40;;
1336;SDS011;662;48.814;9.318;2023-05-07T04:52:03;3.70;;;3.40;;
1336;SDS011;662;48.814;9.318;2023-05-07T04:54:29;5.30;;;3.53;;
1336;SDS011;662;48.814;9.318;2023-05-07T04:56:55;3.27;;;3.00;;
1336;SDS011;662;48.814;9.318;2023-05-07T04:59:21;3.23;;;3.03;;
1336;SDS011;662;48.814;9.318;2023-05-07T05:01:46;3.50;;;3.20;;
1336;SDS011;662;48.814;9.318;2023-05-07T05:04:12;6.20;;;3.60;;
1336;SDS011;662;48.814;9.318;2023-05-07T05:06:38;4.27;;;3.60;;
1336;SDS011;662;48.814;9.318;2023-05-07T05:09:04;4.90;;;3.47;;
1336;SDS011;662;48.814;9.318;2023-05-07T05:11:30;4.23;;;3.60;;
1336;SDS011;662;48.814;9.318;2023-05-07T05:13:56;4.00;;;3.70;;
1336;SDS011;662;48.814;9.318;2023-05-07T05:16:21;4.60;;;4.20;;
1336;SDS011;662;48.814;9.318;2023-05-07T05:18:47;5.17;;;3.90;;
1336;SDS011;662;48.814;9.318;2023-05-07T05:21:13;4.47;;;4.07;;
1336;SDS011;662;48.814;9.318;2023-05-07T05:23:38;4.50;;;3.67;;
1336;SDS011;662;48.814;9.318;2023-05-07T05:26:04;4.90;;;3.43;;
1336;SDS011;662;48.814;9.318;2023-05-07T05:28:30;4.73;;;4.23;;
1336;SDS011;662;48.814;9.318;2023-05-07T05:30:55;3.90;;;3.60;;
1336;SDS011;662;48.814;9.318;2023-05-07T05:33:21;4.13;;;3.83;;
1336;SDS011;662;48.814;9.318;2023-05-07T05:35:47;5.13;;;3.37;;
1336;SDS011;662;48.814;9.318;2023-05-07T05:38:13;3.67;;;3.40;;
1336;SDS011;662;48.814;9.318;2023-05-07T05:40:38;4.27;;;3.87;;
1336;SDS011;662;48.814;9.318;2023-05-07T05:43:05;7.00;;;3.83;;
1336;SDS011;662;48.814;9.318;2023-05-07T05:45:31;4.73;;;4.43;;
1336;SDS011;662;48.814;9.318;2023-05-07T05:47:56;8.60;;;7.90;;
1336;SDS011;662;48.814;9.318;2023-05-07T05:50:22;10.57;;;9.77;;
1336;SDS011;662;48.814;9.318;2023-05-07T05:52:48;6.23;;;5.57;;
1336;SDS011;662;48.814;9.318;2023-05-07T05:55:13;7.77;;;7.13;;
1336;SDS011;662;48.814;9.318;2023-05-07T05:57:39;6.63;;;6.10;;
1336;SDS011;662;48.814;9.318;2023-05-07T06:00:05;7.20;;;5.10;;
1336;SDS011;662;48.814;9.318;2023-05-07T06:02:32;4.30;;;3.90;;
1336;SDS011;662;48.814;9.318;2023-05-07T06:04:57;5.03;;;4.43;;
1336;SDS011;662;48.814;9.318;2023-05-07T06:07:23;5.60;;;4.43;;
1336;SDS011;662;48.814;9.318;2023-05-07T06:09:48;4.27;;;3.93;;
1336;SDS011;662;48.814;9.318;2023-05-07T06:12:14;4.33;;;4.03;;
1336;SDS011;662;48.814;9.318;2023-05-07T06:14:39;4.37;;;4.00;;
1336;SDS011;662;48.814;9.318;2023-05-07T06:17:07;4.47;;;3.50;;
1336;SDS011;662;48.814;9.318;2023-05-07T06:19:33;6.40;;;4.17;;
1336;SDS011;662;48.814;9.318;2023-05-07T06:21:58;4.40;;;3.57;;
1336;SDS011;662;48.814;9.318;2023-05-07T06:24:26;3.70;;;3.40;;
1336;SDS011;662;48.814;9.318;2023-05-07T06:26:51;4.13;;;3.80;;
1336;SDS011;662;48.814;9.318;2023-05-07T06:29:17;5.23;;;4.00;;
1336;SDS011;662;48.814;9.318;2023-05-07T06:31:43;6.53;;;3.90;;
1336;SDS011;662;48.814;9.318;2023-05-07T06:34:09;3.70;;;3.40;;
1336;SDS011;662;48.814;9.318;2023-05-07T06:36:35;4.43;;;3.30;;
1336;SDS011;662;48.814;9.318;2023-05-07T06:39:00;3.57;;;3.20;;
1336;SDS011;662;48.814;9.318;2023-05-07T06:41:26;3.63;;;3.33;;
1336;SDS011;662;48.814;9.318;2023-05-07T06:43:52;3.00;;;2.77;;
1336;SDS011;662;48.814;9.318;2023-05-07T06:46:17;6.50;;;3.73;;
1336;SDS011;662;48.814;9.318;2023-05-07T06:48:43;3.57;;;3.27;;
1336;SDS011;662;48.814;9.318;2023-05-07T06:51:08;3.73;;;3.43;;
1336;SDS011;662;48.814;9.318;2023-05-07T06:53:34;4.10;;;3.30;;
1336;SDS011;662;48.814;9.318;2023-05-07T06:56:00;3.43;;;3.13;;
1336;SDS011;662;48.814;9.318;2023-05-07T06:58:26;4.90;;;3.40;;
1336;SDS011;662;48.814;9.318;2023-05-07T07:00:51;3.57;;;3.27;;
1336;SDS011;662;48.814;9.318;2023-05-07T07:03:17;10.40;;;9.40;;
1336;SDS011;662;48.814;9.318;2023-05-07T07:05:43;8.77;;;7.97;;
1336;SDS011;662;48.814;9.318;2023-05-07T07:08:09;8.73;;;8.03;;
1336;SDS011;662;48.814;9.318;2023-05-07T07:10:35;7.70;;;7.10;;
1336;SDS011;662;48.814;9.318;2023-05-07T07:13:01;7.70;;;7.10;;
1336;SDS011;662;48.814;9.318;2023-05-07T07:15:26;7.67;;;7.10;;
1336;SDS011;662;48.814;9.318;2023-05-07T07:17:52;6.60;;;6.00;;
1336;SDS011;662;48.814;9.318;2023-05-07T07:20:17;5.43;;;5.03;;
1336;SDS011;662;48.814;9.318;2023-05-07T07:22:43;5.27;;;4.87;;
1336;SDS011;662;48.814;9.318;2023-05-07T07:25:09;3.40;;;3.00;;
1336;SDS011;662;48.814;9.318;2023-05-07T07:27:36;4.57;;;2.90;;
1336;SDS011;662;48.814;9.318;2023-05-07T07:30:02;5.80;;;2.83;;
1336;SDS011;662;48.814;9.318;2023-05-07T07:32:28;4.67;;;2.97;;
1336;SDS011;662;48.814;9.318;2023-05-07T07:34:53;4.50;;;2.73;;
1336;SDS011;662;48.814;9.318;2023-05-07T07:37:19;2.83;;;2.43;;
1336;SDS011;662;48.814;9.318;2023-05-07T07:39:45;3.23;;;2.83;;
1336;SDS011;662;48.814;9.318;2023-05-07T07:42:10;3.50;;;2.87;;
1336;SDS011;662;48.814;9.318;2023-05-07T07:44:36;3.40;;;2.90;;
1336;SDS011;662;48.814;9.318;2023-05-07T07:47:02;2.90;;;2.70;;
1336;SDS011;662;48.814;9.318;2023-05-07T07:49:27;3.70;;;2.97;;
1336;SDS011;662;48.814;9.318;2023-05-07T07:51:53;3.60;;;2.60;;
1336;SDS011;662;48.814;9.318;2023-05-07T07:54:18;3.10;;;2.73;;
1336;SDS011;662;48.814;9.318;2023-05-07T07:56:44;6.50;;;6.00;;
1336;SDS011;662;48.814;9.318;2023-05-07T07:59:10;4.47;;;3.67;;
1336;SDS011;662;48.814;9.318;2023-05-07T08:01:35;4.13;;;3.83;;
1336;SDS011;662;48.814;9.318;2023-05-07T08:04:01;2.80;;;2.60;;
1336;SDS011;662;48.814;9.318;2023-05-07T08:06:28;4.80;;;2.87;;
1336;SDS011;662;48.814;9.318;2023-05-07T08:08:54;3.60;;;3.30;;
1336;SDS011;662;48.814;9.318;2023-05-07T08:11:20;3.63;;;3.30;;
1336;SDS011;662;48.814;9.318;2023-05-07T08:13:46;2.63;;;2.53;;
1336;SDS011;662;48.814;9.318;2023-05-07T08:16:13;3.87;;;3.13;;
1336;SDS011;662;48.814;9.318;2023-05-07T08:18:39;4.37;;;2.87;;
1336;SDS011;662;48.814;9.318;2023-05-07T08:21:05;3.07;;;2.77;;
1336;SDS011;662;48.814;9.318;2023-05-07T08:23:30;3.30;;;3.10;;
1336;SDS011;662;48.814;9.318;2023-05-07T08:25:56;3.00;;;2.80;;
1336;SDS011;662;48.814;9.318;2023-05-07T08:28:22;4.60;;;3.17;;
1336;SDS011;662;48.814;9.318;2023-05-07T08:30:49;3.73;;;3.53;;
1336;SDS011;662;48.814;9.318;2023-05-07T08:33:15;3.80;;;3.40;;
1336;SDS011;662;48.814;9.318;2023-05-07T08:35:41;4.10;;;3.57;;
1336;SDS011;662;48.814;9.318;2023-05-07T08:38:07;4.73;;;4.27;;
1336;SDS011;662;48.814;9.318;2023-05-07T08:40:36;3.20;;;3.00;;
1336;SDS011;662;48.814;9.318;2023-05-07T08:43:05;3.40;;;3.20;;
1336;SDS011;662;48.814;9.318;2023-05-07T08:45:31;5.10;;;3.40;;
1336;SDS011;662;48.814;9.318;2023-05-07T08:47:59;3.60;;;3.30;;
1336;SDS011;662;48.814;9.318;2023-05-07T08:50:28;4.60;;;2.90;;
1336;SDS011;662;48.814;9.318;2023-05-07T08:52:54;3.30;;;3.10;;
1336;SDS011;662;48.814;9.318;2023-05-07T08:55:21;6.03;;;3.17;;
1336;SDS011;662;48.814;9.318;2023-05-07T08:57:48;3.57;;;3.00;;
1336;SDS011;662;48.814;9.318;2023-05-07T09:00:13;3.23;;;3.03;;
1336;SDS011;662;48.814;9.318;2023-05-07T09:02:39;3.27;;;2.97;;
1336;SDS011;662;48.814;9.318;2023-05-07T09:05:05;3.90;;;2.97;;
1336;SDS011;662;48.814;9.318;2023-05-07T09:07:31;3.83;;;3.53;;
1336;SDS011;662;48.814;9.318;2023-05-07T09:09:57;3.40;;;3.20;;
1336;SDS011;662;48.814;9.318;2023-05-07T09:12:23;3.70;;;3.03;;
1336;SDS011;662;48.814;9.318;2023-05-07T09:14:49;3.10;;;2.80;;
1336;SDS011;662;48.814;9.318;2023-05-07T09:17:15;3.33;;;3.00;;
1336;SDS011;662;48.814;9.318;2023-05-07T09:19:42;2.60;;;2.40;;
1336;SDS011;662;48.814;9.318;2023-05-07T09:22:10;3.53;;;2.63;;
1336;SDS011;662;48.814;9.318;2023-05-07T09:24:36;3.00;;;2.80;;
1336;SDS011;662;48.814;9.318;2023-05-07T09:27:06;2.40;;;2.20;;
1336;SDS011;662;48.814;9.318;2023-05-07T09:29:33;4.10;;;3.10;;
1336;SDS011;662;48.814;9.318;2023-05-07T09:32:03;3.53;;;3.33;;
1336;SDS011;662;48.814;9.318;2023-05-07T09:34:30;3.53;;;3.23;;
1336;SDS011;662;48.814;9.318;2023-05-07T09:37:00;3.43;;;3.13;;
1336;SDS011;662;48.814;9.318;2023-05-07T09:39:28;3.27;;;2.97;;
1336;SDS011;662;48.814;9.318;2023-05-07T09:42:15;3.57;;;2.57;;
1336;SDS011;662;48.814;9.318;2023-05-07T09:44:41;4.23;;;2.80;;
1336;SDS011;662;48.814;9.318;2023-05-07T09:47:08;2.80;;;2.60;;
1336;SDS011;662;48.814;9.318;2023-05-07T09:49:36;2.97;;;2.73;;
1336;SDS011;662;48.814;9.318;2023-05-07T09:52:03;2.93;;;2.60;;
1336;SDS011;662;48.814;9.318;2023-05-07T09:54:35;2.67;;;2.47;;
1336;SDS011;662;48.814;9.318;2023-05-07T09:57:03;3.10;;;2.90;;
1336;SDS011;662;48.814;9.318;2023-05-07T09:59:29;2.93;;;2.73;;
1336;SDS011;662;48.814;9.318;2023-05-07T10:01:57;3.07;;;2.87;;
1336;SDS011;662;48.814;9.318;2023-05-07T10:04:27;2.87;;;2.57;;
1336;SDS011;662;48.814;9.318;2023-05-07T10:06:53;5.17;;;2.80;;
1336;SDS011;662;48.814;9.318;2023-05-07T10:09:20;2.93;;;2.70;;
1336;SDS011;662;48.814;9.318;2023-05-07T10:11:47;4.40;;;2.80;;
1336;SDS011;662;48.814;9.318;2023-05-07T10:14:15;3.07;;;2.87;;
1336;SDS011;662;48.814;9.318;2023-05-07T10:16:41;3.13;;;2.80;;
1336;SDS011;662;48.814;9.318;2023-05-07T10:19:08;3.33;;;3.00;;
1336;SDS011;662;48.814;9.318;2023-05-07T10:21:38;2.97;;;2.77;;
1336;SDS011;662;48.814;9.318;2023-05-07T10:24:10;13.37;;;12.07;;
1336;SDS011;662;48.814;9.318;2023-05-07T10:26:42;9.70;;;8.73;;
1336;SDS011;662;48.814;9.318;2023-05-07T10:29:12;2.67;;;2.47;;
1336;SDS011;662;48.814;9.318;2023-05-07T10:34:29;2.40;;;2.30;;
1336;SDS011;662;48.814;9.318;2023-05-07T10:37:00;3.27;;;2.60;;
1336;SDS011;662;48.814;9.318;2023-05-07T10:39:27;2.90;;;2.60;;
1336;SDS011;662;48.814;9.318;2023-05-07T10:41:53;2.80;;;2.60;;
1336;SDS011;662;48.814;9.318;2023-05-07T10:44:25;2.87;;;2.60;;
1336;SDS011;662;48.814;9.318;2023-05-07T10:52:22;2.40;;;2.20;;
1336;SDS011;662;48.814;9.318;2023-05-07T10:55:36;2.80;;;2.60;;
1336;SDS011;662;48.814;9.318;2023-05-07T10:57:50;2.70;;;2.50;;
1336;SDS011;662;48.814;9.318;2023-05-07T11:05:27;2.70;;;1.83;;
1336;SDS011;662;48.814;9.318;2023-05-07T11:08:00;2.10;;;2.00;;
1336;SDS011;662;48.814;9.318;2023-05-07T11:10:48;3.50;;;2.40;;
1336;SDS011;662;48.814;9.318;2023-05-07T11:13:14;2.53;;;2.20;;
1336;SDS011;662;48.814;9.318;2023-05-07T11:15:43;6.03;;;2.60;;
1336;SDS011;662;48.814;9.318;2023-05-07T11:18:16;3.37;;;2.30;;
1336;SDS011;662;48.814;9.318;2023-05-07T11:26:08;2.47;;;2.27;;
1336;SDS011;662;48.814;9.318;2023-05-07T11:28:38;2.97;;;2.40;;
1336;SDS011;662;48.814;9.318;2023-05-07T11:31:08;3.17;;;2.60;;
1336;SDS011;662;48.814;9.318;2023-05-07T11:33:35;2.03;;;1.93;;
1336;SDS011;662;48.814;9.318;2023-05-07T11:36:02;3.07;;;2.60;;
1336;SDS011;662;48.814;9.318;2023-05-07T11:38:38;3.00;;;2.43;;
1336;SDS011;662;48.814;9.318;2023-05-07T11:41:04;2.50;;;2.17;;
1336;SDS011;662;48.814;9.318;2023-05-07T11:43:31;3.30;;;2.43;;
1336;SDS011;662;48.814;9.318;2023-05-07T11:46:10;2.77;;;2.57;;
1336;SDS011;662;48.814;9.318;2023-05-07T11:48:36;2.90;;;2.37;;
1336;SDS011;662;48.814;9.318;2023-05-07T11:51:03;3.33;;;3.03;;
1336;SDS011;662;48.814;9.318;2023-05-07T11:53:37;4.23;;;3.27;;
1336;SDS011;662;48.814;9.318;2023-05-07T11:56:07;4.47;;;2.93;;
1336;SDS011;662;48.814;9.318;2023-05-07T11:58:34;2.70;;;2.50;;
1336;SDS011;662;48.814;9.318;2023-05-07T12:01:01;4.47;;;2.60;;
1336;SDS011;662;48.814;9.318;2023-05-07T12:03:26;2.27;;;2.07;;
1336;SDS011;662;48.814;9.318;2023-05-07T12:05:52;2.40;;;2.20;;
1336;SDS011;662;48.814;9.318;2023-05-07T12:08:19;2.30;;;2.20;;
1336;SDS011;662;48.814;9.318;2023-05-07T12:10:46;2.30;;;2.10;;
1336;SDS011;662;48.814;9.318;2023-05-07T12:13:14;2.40;;;2.20;;
1336;SDS011;662;48.814;9.318;2023-05-07T12:15:41;3.10;;;2.33;;
1336;SDS011;662;48.814;9.318;2023-05-07T12:18:07;2.20;;;2.10;;
1336;SDS011;662;48.814;9.318;2023-05-07T12:20:34;2.30;;;2.10;;
1336;SDS011;662;48.814;9.318;2023-05-07T12:23:01;2.37;;;2.17;;
1336;SDS011;662;48.814;9.318;2023-05-07T12:25:30;3.73;;;2.13;;
1336;SDS011;662;48.814;9.318;2023-05-07T12:27:56;2.33;;;2.10;;
1336;SDS011;662;48.814;9.318;2023-05-07T12:30:24;2.40;;;2.00;;
1336;SDS011;662;48.814;9.318;2023-05-07T12:32:53;2.70;;;2.50;;
1336;SDS011;662;48.814;9.318;2023-05-07T12:35:26;3.90;;;3.10;;
1336;SDS011;662;48.814;9.318;2023-05-07T12:37:59;3.43;;;2.50;;
1336;SDS011;662;48.814;9.318;2023-05-07T12:40:39;2.80;;;2.60;;
1336;SDS011;662;48.814;9.318;2023-05-07T12:43:07;3.50;;;2.33;;
1336;SDS011;662;48.814;9.318;2023-05-07T12:45:40;2.80;;;2.37;;
1336;SDS011;662;48.814;9.318;2023-05-07T12:48:06;2.67;;;2.47;;
1336;SDS011;662;48.814;9.318;2023-05-07T12:50:35;4.17;;;2.60;;
1336;SDS011;662;48.814;9.318;2023-05-07T12:53:02;5.23;;;2.60;;
1336;SDS011;662;48.814;9.318;2023-05-07T12:55:31;1.90;;;1.77;;
1336;SDS011;662;48.814;9.318;2023-05-07T12:58:00;2.30;;;2.00;;
1336;SDS011;662;48.814;9.318;2023-05-07T13:00:38;2.20;;;2.10;;
1336;SDS011;662;48.814;9.318;2023-05-07T13:03:04;4.03;;;2.30;;
1336;SDS011;662;48.814;9.318;2023-05-07T13:05:31;2.70;;;2.50;;
1336;SDS011;662;48.814;9.318;2023-05-07T13:07:57;3.27;;;2.40;;
1336;SDS011;662;48.814;9.318;2023-05-07T13:10:23;2.57;;;2.10;;
1336;SDS011;662;48.814;9.318;2023-05-07T13:12:49;2.60;;;2.40;;
1336;SDS011;662;48.814;9.318;2023-05-07T13:15:15;5.03;;;2.70;;
1336;SDS011;662;48.814;9.318;2023-05-07T13:17:41;4.17;;;2.30;;
1336;SDS011;662;48.814;9.318;2023-05-07T13:20:06;3.20;;;2.90;;
1336;SDS011;662;48.814;9.318;2023-05-07T13:22:34;3.00;;;2.70;;
1336;SDS011;662;48.814;9.318;2023-05-07T13:24:59;3.20;;;2.90;;
1336;SDS011;662;48.814;9.318;2023-05-07T13:27:25;3.63;;;2.97;;
1336;SDS011;662;48.814;9.318;2023-05-07T13:29:51;5.73;;;2.73;;
1336;SDS011;662;48.814;9.318;2023-05-07T13:32:17;3.63;;;2.23;;
1336;SDS011;662;48.814;9.318;2023-05-07T13:34:42;6.67;;;1.63;;
1336;SDS011;662;48.814;9.318;2023-05-07T13:37:08;3.13;;;1.90;;
1336;SDS011;662;48.814;9.318;2023-05-07T13:39:33;1.50;;;1.40;;
1336;SDS011;662;48.814;9.318;2023-05-07T13:41:59;2.80;;;1.70;;
1336;SDS011;662;48.814;9.318;2023-05-07T13:44:25;1.87;;;1.40;;
1336;SDS011;662;48.814;9.318;2023-05-07T13:46:51;1.50;;;1.40;;
1336;SDS011;662;48.814;9.318;2023-05-07T13:49:17;3.40;;;1.63;;
1336;SDS011;662;48.814;9.318;2023-05-07T13:51:43;1.47;;;1.30;;
1336;SDS011;662;48.814;9.318;2023-05-07T13:54:08;5.60;;;1.43;;
1336;SDS011;662;48.814;9.318;2023-05-07T13:56:34;1.97;;;1.47;;
1336;SDS011;662;48.814;9.318;2023-05-07T13:59:01;1.27;;;1.27;;
1336;SDS011;662;48.814;9.318;2023-05-07T14:01:27;4.00;;;1.20;;
1336;SDS011;662;48.814;9.318;2023-05-07T14:03:52;4.57;;;2.27;;
1336;SDS011;662;48.814;9.318;2023-05-07T14:06:18;4.13;;;1.60;;
1336;SDS011;662;48.814;9.318;2023-05-07T14:08:44;5.10;;;1.67;;
1336;SDS011;662;48.814;9.318;2023-05-07T14:11:10;3.50;;;2.00;;
1336;SDS011;662;48.814;9.318;2023-05-07T14:13:35;5.03;;;1.83;;
1336;SDS011;662;48.814;9.318;2023-05-07T14:16:01;3.80;;;1.40;;
1336;SDS011;662;48.814;9.318;2023-05-07T14:18:29;2.67;;;1.63;;
1336;SDS011;662;48.814;9.318;2023-05-07T14:20:54;2.17;;;1.40;;
1336;SDS011;662;48.814;9.318;2023-05-07T14:23:20;1.83;;;1.57;;
1336;SDS011;662;48.814;9.318;2023-05-07T14:25:51;2.47;;;1.60;;
1336;SDS011;662;48.814;9.318;2023-05-07T14:28:17;3.80;;;1.80;;
1336;SDS011;662;48.814;9.318;2023-05-07T14:30:43;3.13;;;2.40;;
1336;SDS011;662;48.814;9.318;2023-05-07T14:33:09;3.30;;;2.80;;
1336;SDS011;662;48.814;9.318;2023-05-07T14:35:34;2.40;;;2.20;;
1336;SDS011;662;48.814;9.318;2023-05-07T14:38:00;2.57;;;2.37;;
1336;SDS011;662;48.814;9.318;2023-05-07T14:40:26;3.93;;;2.70;;
1336;SDS011;662;48.814;9.318;2023-05-07T14:42:52;3.23;;;2.40;;
1336;SDS011;662;48.814;9.318;2023-05-07T14:45:17;2.60;;;2.40;;
1336;SDS011;662;48.814;9.318;2023-05-07T14:47:43;4.60;;;2.70;;
1336;SDS011;662;48.814;9.318;2023-05-07T14:50:09;3.10;;;2.60;;
1336;SDS011;662;48.814;9.318;2023-05-07T14:52:34;10.80;;;2.30;;
1336;SDS011;662;48.814;9.318;2023-05-07T14:55:00;6.03;;;2.80;;
1336;SDS011;662;48.814;9.318;2023-05-07T14:57:26;5.07;;;3.17;;
1336;SDS011;662;48.814;9.318;2023-05-07T14:59:51;5.87;;;3.00;;
1336;SDS011;662;48.814;9.318;2023-05-07T15:02:17;5.63;;;3.10;;
1336;SDS011;662;48.814;9.318;2023-05-07T15:04:43;3.97;;;2.07;;
1336;SDS011;662;48.814;9.318;2023-05-07T15:07:14;3.03;;;1.63;;
1336;SDS011;662;48.814;9.318;2023-05-07T15:09:41;1.63;;;1.40;;
1336;SDS011;662;48.814;9.318;2023-05-07T15:12:07;1.43;;;1.23;;
1336;SDS011;662;48.814;9.318;2023-05-07T15:14:33;4.13;;;2.43;;
1336;SDS011;662;48.814;9.318;2023-05-07T15:16:59;5.23;;;2.60;;
1336;SDS011;662;48.814;9.318;2023-05-07T15:19:25;4.77;;;2.60;;
1336;SDS011;662;48.814;9.318;2023-05-07T15:21:54;3.20;;;2.67;;
1336;SDS011;662;48.814;9.318;2023-05-07T15:24:22;3.93;;;2.90;;
1336;SDS011;662;48.814;9.318;2023-05-07T15:26:48;4.27;;;3.03;;
1336;SDS011;662;48.814;9.318;2023-05-07T15:29:14;4.90;;;3.17;;
1336;SDS011;662;48.814;9.318;2023-05-07T15:31:40;4.30;;;3.40;;
1336;SDS011;662;48.814;9.318;2023-05-07T15:34:06;5.70;;;3.50;;
1336;SDS011;662;48.814;9.318;2023-05-07T15:36:31;8.20;;;5.23;;
1336;SDS011;662;48.814;9.318;2023-05-07T15:38:57;5.93;;;3.97;;
1336;SDS011;662;48.814;9.318;2023-05-07T15:41:24;3.60;;;2.73;;
1336;SDS011;662;48.814;9.318;2023-05-07T15:43:50;4.03;;;2.97;;
1336;SDS011;662;48.814;9.318;2023-05-07T15:46:20;3.70;;;2.70;;